Zuiderdam — PBIG — position and weather

sailwx.info

Track history (hours):
 
Tides and Currents Weather Stations Pressure Air Temp Water Temp Dewpoint Dewpoint Depression Visibility Wind Speed Wind Dir Waves Ship Positions

Zuiderdam (Netherlands)

Operator: Holland America Line

Last reported at 2018-Jul-22 03:00 UTC. Time now 2018-Jul-22 03:21 UTC.
Position N 55°47' E 016°00'.

Type: Passenger vessel. MMSI: 245304000.

Date/timePositionNaut miles runAvg speedWind from/ knotsBaromVisibWave heightAir tempDewpointWater temp
2018-Jul-22 03:00N 55°47' E 016°00'714.3
2018-Jul-22 02:30N 55°44' E 015°49'714.3
2018-Jul-22 02:00N 55°40' E 015°38'4270.2
2018-Jul-22 02:00N 55°36' E 015°36'510.4 320 / 101009.010.8 19.616.221.4
2018-Jul-22 01:30N 55°37' E 015°27'714.9
2018-Jul-22 01:00N 55°33' E 015°16'815.2
2018-Jul-22 00:30N 55°30' E 015°04'815.4
2018-Jul-22 00:00N 55°26' E 014°51'815.1
2018-Jul-21 23:30N 55°23' E 014°40'815.1
2018-Jul-21 23:00N 55°17' E 014°31'714.8
2018-Jul-21 22:30N 55°12' E 014°23'714.6
2018-Jul-21 22:00N 55°09' E 014°11'714.9
2018-Jul-21 21:30N 55°10' E 013°58'815.0
2018-Jul-21 21:00N 55°11' E 013°45'714.8
2018-Jul-21 20:30N 55°12' E 013°32'714.9
2018-Jul-21 20:00N 55°13' E 013°19'714.7
2018-Jul-21 19:30N 55°13' E 013°06'814.4
2018-Jul-21 18:59N 55°14' E 012°53'714.3
2018-Jul-21 18:30N 55°17' E 012°42'612.1
2018-Jul-21 18:00N 55°23' E 012°39'53097.9
2018-Jul-21 18:00N 55°18' E 012°36'1224.0 180 / 131009.010.8 21.415.020.9
2018-Jul-21 17:30N 55°29' E 012°42'4 7.6
2018-Jul-21 17:00N 55°33' E 012°42'3 5.8
2018-Jul-21 16:30N 55°36' E 012°42'3 5.9
2018-Jul-21 16:00N 55°39' E 012°41'510.1
2018-Jul-21 15:30N 55°44' E 012°39'2 2.6
2018-Jul-21 14:55N 55°43' E 012°37'0 0.0
2018-Jul-21 14:25N 55°43' E 012°37'0 0.0
2018-Jul-21 13:55N 55°43' E 012°37'0 0.0
2018-Jul-21 13:25N 55°43' E 012°37'0 0.0
2018-Jul-21 12:55N 55°43' E 012°37'0 0.0
2018-Jul-21 12:25N 55°43' E 012°37'0 0.0
2018-Jul-21 11:55N 55°43' E 012°37'0 0.0
2018-Jul-21 11:25N 55°43' E 012°37'0 0.0
2018-Jul-21 10:55N 55°43' E 012°37'0 0.0
2018-Jul-21 10:25N 55°43' E 012°37'0 0.0
2018-Jul-21 09:55N 55°43' E 012°37'0 0.0
2018-Jul-21 09:25N 55°43' E 012°37'0 0.0
2018-Jul-21 08:55N 55°43' E 012°37'0 0.0
2018-Jul-21 08:25N 55°43' E 012°37'0 0.0
2018-Jul-21 07:55N 55°43' E 012°37'0 0.0
2018-Jul-21 07:25N 55°43' E 012°37'0 0.0
2018-Jul-21 06:55N 55°43' E 012°37'0 0.0
2018-Jul-21 06:25N 55°43' E 012°37'0 0.0
2018-Jul-21 05:55N 55°43' E 012°37'0 0.0
2018-Jul-21 05:25N 55°43' E 012°37'0 0.0
2018-Jul-21 04:55N 55°43' E 012°37'0 0.0
2018-Jul-21 04:30N 55°43' E 012°37'1 2.3
2018-Jul-21 04:00N 55°43' E 012°39'511.0
2018-Jul-21 03:30N 55°49' E 012°42'611.8
2018-Jul-21 03:00N 55°54' E 012°39'611.4
2018-Jul-21 02:30N 55°60' E 012°40'612.9
2018-Jul-21 02:00N 56°05' E 012°34'713.5
2018-Jul-21 01:30N 56°09' E 012°24'183356.4
2018-Jul-21 01:00N 59°12' E 012°12'1793552.6 310 / 141013.010.8 19.111.622.5
2018-Jul-21 00:56N 56°13' E 012°13'3513.7
2018-Jul-20 22:24N 56°46' E 011°51'615.4
2018-Jul-20 22:00N 56°52' E 011°47'815.3
2018-Jul-20 21:30N 56°59' E 011°42'816.5
2018-Jul-20 21:00N 57°06' E 011°37'816.2
2018-Jul-20 20:30N 57°14' E 011°33'816.2
2018-Jul-20 20:00N 57°22' E 011°28'816.1
2018-Jul-20 19:30N 57°29' E 011°21'816.1
2018-Jul-20 19:00N 57°35' E 011°10'815.9
2018-Jul-20 18:30N 57°40' E 010°59'816.1
2018-Jul-20 18:00N 57°46' E 010°49'815.5
2018-Jul-20 17:30N 57°49' E 010°36'917.4
2018-Jul-20 17:00N 57°48' E 010°20'917.0
2018-Jul-20 16:30N 57°48' E 010°04'916.7
2018-Jul-20 16:00N 57°47' E 009°48'816.8
2018-Jul-20 15:30N 57°46' E 009°33'1217.0
2018-Jul-20 14:49N 57°45' E 009°10'517.1
2018-Jul-20 14:30N 57°44' E 009°01'917.1
2018-Jul-20 14:00N 57°43' E 008°44'1016.9
2018-Jul-20 13:23N 57°42' E 008°25'717.0
2018-Jul-20 12:59N 57°41' E 008°13'2516.7
2018-Jul-20 11:30N 57°41' E 007°26'917.0
2018-Jul-20 11:00N 57°42' E 007°10'1317.2
2018-Jul-20 10:14N 57°43' E 006°46'415.6
2018-Jul-20 09:57N 57°43' E 006°38'3516.5
2018-Jul-20 07:50N 57°57' E 005°37'516.9
2018-Jul-20 07:30N 57°59' E 005°28'816.5
2018-Jul-20 07:00N 58°02' E 005°13'816.4
2018-Jul-20 06:30N 58°06' E 004°59'816.4
2018-Jul-20 06:00N 58°09' E 004°45'816.3
2018-Jul-20 05:30N 58°13' E 004°31'816.7
2018-Jul-20 05:00N 58°16' E 004°16'916.7
2018-Jul-20 04:28N 58°20' E 004°01'19011.5
2018-Jul-19 12:00N 60°06' W 001°06'64 5.3 180 / 201017.010.8 14.511.114.5
2018-Jul-19 00:00N 60°18' W 003°12'14412.0 230 / 201017.010.8 13.211.414.5
2018-Jul-18 12:00N 62°00' W 006°42'24010.0 280 / 151011.010.8 11.4 9.812.5
2018-Jul-17 12:00N 62°36' W 015°12'199 8.7 090 / 201009.010.8 12.0 9.012.5
2018-Jul-16 13:00N 64°06' W 021°48'0 0.0 010 / 201002.010.8 11.0 5.911.5
2018-Jul-16 00:00N 64°06' W 021°48'0 0.0 260 / 81001.010.8 10.4 9.211.5
2018-Jul-15 13:00N 64°06' W 021°48'92 7.1 150 / 15996.010.8 14.4 8.611.0
2018-Jul-15 00:00N 65°00' W 024°42'169 5.6 050 / 20999.010.8 9.3 5.511.0
2018-Jul-13 18:00N 65°48' W 018°12'7214.4 320 / 25999.010.8 11.6 7.711.0
2018-Jul-13 13:00N 64°36' W 018°12'13610.5 090 / 51003.010.8 14.7 9.712.6
2018-Jul-13 00:00N 66°30' W 015°12'84 7.7 060 / 151012.010.8 10.7 8.510.3
2018-Jul-12 13:00N 65°12' W 013°54'   1014.010.8 14.7 7.510.1
Track history (hours):
 
Tides and Currents Weather Stations Pressure Air Temp Water Temp Dewpoint Dewpoint Depression Visibility Wind Speed Wind Dir Waves Ship Positions

Zuiderdam (Netherlands)

Operator: Holland America Line

Last reported at 2018-Jul-22 03:00 UTC. Time now 2018-Jul-22 03:21 UTC.
Position N 55°47' E 016°00'.

Type: Passenger vessel. MMSI: 245304000.

Date/timePositionNaut miles runAvg speedWind from/ knotsBaromVisibWave heightAir tempDewpointWater temp
2018-Jul-22 03:00N 55°47' E 016°00'714.3
2018-Jul-22 02:30N 55°44' E 015°49'714.3
2018-Jul-22 02:00N 55°40' E 015°38'4270.2
2018-Jul-22 02:00N 55°36' E 015°36'510.4 320 / 101009.010.8 19.616.221.4
2018-Jul-22 01:30N 55°37' E 015°27'714.9
2018-Jul-22 01:00N 55°33' E 015°16'815.2
2018-Jul-22 00:30N 55°30' E 015°04'815.4
2018-Jul-22 00:00N 55°26' E 014°51'815.1
2018-Jul-21 23:30N 55°23' E 014°40'815.1
2018-Jul-21 23:00N 55°17' E 014°31'714.8
2018-Jul-21 22:30N 55°12' E 014°23'714.6
2018-Jul-21 22:00N 55°09' E 014°11'714.9
2018-Jul-21 21:30N 55°10' E 013°58'815.0
2018-Jul-21 21:00N 55°11' E 013°45'714.8
2018-Jul-21 20:30N 55°12' E 013°32'714.9
2018-Jul-21 20:00N 55°13' E 013°19'714.7
2018-Jul-21 19:30N 55°13' E 013°06'814.4
2018-Jul-21 18:59N 55°14' E 012°53'714.3
2018-Jul-21 18:30N 55°17' E 012°42'612.1
2018-Jul-21 18:00N 55°23' E 012°39'53097.9
2018-Jul-21 18:00N 55°18' E 012°36'1224.0 180 / 131009.010.8 21.415.020.9
2018-Jul-21 17:30N 55°29' E 012°42'4 7.6
2018-Jul-21 17:00N 55°33' E 012°42'3 5.8
2018-Jul-21 16:30N 55°36' E 012°42'3 5.9
2018-Jul-21 16:00N 55°39' E 012°41'510.1
2018-Jul-21 15:30N 55°44' E 012°39'2 2.6
2018-Jul-21 14:55N 55°43' E 012°37'0 0.0
2018-Jul-21 14:25N 55°43' E 012°37'0 0.0
2018-Jul-21 13:55N 55°43' E 012°37'0 0.0
2018-Jul-21 13:25N 55°43' E 012°37'0 0.0
2018-Jul-21 12:55N 55°43' E 012°37'0 0.0
2018-Jul-21 12:25N 55°43' E 012°37'0 0.0
2018-Jul-21 11:55N 55°43' E 012°37'0 0.0
2018-Jul-21 11:25N 55°43' E 012°37'0 0.0
2018-Jul-21 10:55N 55°43' E 012°37'0 0.0
2018-Jul-21 10:25N 55°43' E 012°37'0 0.0
2018-Jul-21 09:55N 55°43' E 012°37'0 0.0
2018-Jul-21 09:25N 55°43' E 012°37'0 0.0
2018-Jul-21 08:55N 55°43' E 012°37'0 0.0
2018-Jul-21 08:25N 55°43' E 012°37'0 0.0
2018-Jul-21 07:55N 55°43' E 012°37'0 0.0
2018-Jul-21 07:25N 55°43' E 012°37'0 0.0
2018-Jul-21 06:55N 55°43' E 012°37'0 0.0
2018-Jul-21 06:25N 55°43' E 012°37'0 0.0
2018-Jul-21 05:55N 55°43' E 012°37'0 0.0
2018-Jul-21 05:25N 55°43' E 012°37'0 0.0
2018-Jul-21 04:55N 55°43' E 012°37'0 0.0
2018-Jul-21 04:30N 55°43' E 012°37'1 2.3
2018-Jul-21 04:00N 55°43' E 012°39'511.0
2018-Jul-21 03:30N 55°49' E 012°42'611.8
2018-Jul-21 03:00N 55°54' E 012°39'611.4
2018-Jul-21 02:30N 55°60' E 012°40'612.9
2018-Jul-21 02:00N 56°05' E 012°34'713.5
2018-Jul-21 01:30N 56°09' E 012°24'183356.4
2018-Jul-21 01:00N 59°12' E 012°12'1793552.6 310 / 141013.010.8 19.111.622.5
2018-Jul-21 00:56N 56°13' E 012°13'3513.7
2018-Jul-20 22:24N 56°46' E 011°51'615.4
2018-Jul-20 22:00N 56°52' E 011°47'815.3
2018-Jul-20 21:30N 56°59' E 011°42'816.5
2018-Jul-20 21:00N 57°06' E 011°37'816.2
2018-Jul-20 20:30N 57°14' E 011°33'816.2
2018-Jul-20 20:00N 57°22' E 011°28'816.1
2018-Jul-20 19:30N 57°29' E 011°21'816.1
2018-Jul-20 19:00N 57°35' E 011°10'815.9
2018-Jul-20 18:30N 57°40' E 010°59'816.1
2018-Jul-20 18:00N 57°46' E 010°49'815.5
2018-Jul-20 17:30N 57°49' E 010°36'917.4
2018-Jul-20 17:00N 57°48' E 010°20'917.0
2018-Jul-20 16:30N 57°48' E 010°04'916.7
2018-Jul-20 16:00N 57°47' E 009°48'816.8
2018-Jul-20 15:30N 57°46' E 009°33'1217.0
2018-Jul-20 14:49N 57°45' E 009°10'517.1
2018-Jul-20 14:30N 57°44' E 009°01'917.1
2018-Jul-20 14:00N 57°43' E 008°44'1016.9
2018-Jul-20 13:23N 57°42' E 008°25'717.0
2018-Jul-20 12:59N 57°41' E 008°13'2516.7
2018-Jul-20 11:30N 57°41' E 007°26'917.0
2018-Jul-20 11:00N 57°42' E 007°10'1317.2
2018-Jul-20 10:14N 57°43' E 006°46'415.6
2018-Jul-20 09:57N 57°43' E 006°38'3516.5
2018-Jul-20 07:50N 57°57' E 005°37'516.9
2018-Jul-20 07:30N 57°59' E 005°28'816.5
2018-Jul-20 07:00N 58°02' E 005°13'816.4
2018-Jul-20 06:30N 58°06' E 004°59'816.4
2018-Jul-20 06:00N 58°09' E 004°45'816.3
2018-Jul-20 05:30N 58°13' E 004°31'816.7
2018-Jul-20 05:00N 58°16' E 004°16'916.7
2018-Jul-20 04:28N 58°20' E 004°01'19011.5
2018-Jul-19 12:00N 60°06' W 001°06'64 5.3 180 / 201017.010.8 14.511.114.5
2018-Jul-19 00:00N 60°18' W 003°12'14412.0 230 / 201017.010.8 13.211.414.5
2018-Jul-18 12:00N 62°00' W 006°42'24010.0 280 / 151011.010.8 11.4 9.812.5
2018-Jul-17 12:00N 62°36' W 015°12'199 8.7 090 / 201009.010.8 12.0 9.012.5
2018-Jul-16 13:00N 64°06' W 021°48'0 0.0 010 / 201002.010.8 11.0 5.911.5
2018-Jul-16 00:00N 64°06' W 021°48'0 0.0 260 / 81001.010.8 10.4 9.211.5
2018-Jul-15 13:00N 64°06' W 021°48'92 7.1 150 / 15996.010.8 14.4 8.611.0
2018-Jul-15 00:00N 65°00' W 024°42'169 5.6 050 / 20999.010.8 9.3 5.511.0
2018-Jul-13 18:00N 65°48' W 018°12'7214.4 320 / 25999.010.8 11.6 7.711.0
2018-Jul-13 13:00N 64°36' W 018°12'13610.5 090 / 51003.010.8 14.7 9.712.6
2018-Jul-13 00:00N 66°30' W 015°12'84 7.7 060 / 151012.010.8 10.7 8.510.3
2018-Jul-12 13:00N 65°12' W 013°54'   1014.010.8 14.7 7.510.1

Dump ship's entire track history